createdAt,value
2018-05-24T17:29:49.966Z,26.30
2018-05-24T17:32:19.159Z,26.30
2018-05-24T17:34:49.362Z,26.20
2018-05-24T17:37:17.773Z,26.20
2018-05-24T17:39:46.795Z,26.50
2018-05-24T17:42:15.173Z,26.50
2018-05-24T17:44:46.053Z,26.40
2018-05-24T17:47:14.517Z,26.30
2018-05-24T17:49:42.770Z,26.40
2018-05-24T17:52:16.459Z,26.70
2018-05-24T17:54:44.738Z,26.90
2018-05-24T17:57:13.990Z,27.10
2018-05-24T17:59:42.425Z,27.00
2018-05-24T18:02:11.716Z,26.60
2018-05-24T18:04:40.725Z,26.00
2018-05-24T18:07:09.077Z,25.90
2018-05-24T18:09:37.633Z,25.70
2018-05-24T18:12:06.114Z,25.50
2018-05-24T18:14:34.596Z,25.30
2018-05-24T18:17:02.861Z,25.10
2018-05-24T18:19:31.265Z,24.90
2018-05-24T18:22:01.069Z,24.60
2018-05-24T18:24:29.543Z,24.60
2018-05-24T18:26:58.118Z,24.50
2018-05-24T18:29:26.409Z,24.40
2018-05-24T18:31:56.822Z,24.30
2018-05-24T18:34:26.143Z,24.20
2018-05-24T18:36:54.890Z,24.10
2018-05-24T18:39:24.117Z,23.90
2018-05-24T18:41:52.491Z,23.80
2018-05-24T18:44:21.522Z,23.70
2018-05-24T18:46:50.550Z,23.50
2018-05-24T18:49:18.874Z,23.40
2018-05-24T18:51:49.133Z,23.20
2018-05-24T18:54:17.463Z,23.20
2018-05-24T18:56:46.793Z,23.10
2018-05-24T18:59:16.239Z,23.00
2018-05-24T19:01:44.497Z,22.90
2018-05-24T19:04:12.820Z,22.90
2018-05-24T19:06:42.152Z,22.80
2018-05-24T19:09:10.559Z,22.70
2018-05-24T19:11:39.218Z,22.60
2018-05-24T19:14:08.258Z,22.50
2018-05-24T19:16:36.694Z,22.40
2018-05-24T19:19:05.037Z,22.40
2018-05-24T19:21:33.514Z,22.30
2018-05-24T19:24:01.781Z,22.30
2018-05-24T19:26:30.263Z,22.20
2018-05-24T19:29:00.329Z,22.10
2018-05-24T19:31:31.445Z,22.10
2018-05-24T19:34:00.746Z,22.10
2018-05-24T19:36:29.896Z,22.10
2018-05-24T19:38:58.157Z,22.10
2018-05-24T19:41:27.413Z,22.00
2018-05-24T19:43:59.875Z,21.90
2018-05-24T19:46:28.168Z,21.80
2018-05-24T19:48:57.201Z,21.80
2018-05-24T19:51:25.820Z,21.70
2018-05-24T19:53:54.236Z,21.70
2018-05-24T19:56:23.523Z,21.60
2018-05-24T19:58:51.988Z,21.50
2018-05-24T20:01:20.329Z,21.50
2018-05-24T20:03:48.689Z,21.40
2018-05-24T20:06:18.047Z,21.30
2018-05-24T20:08:47.276Z,21.30
2018-05-24T20:11:16.299Z,21.40
2018-05-24T20:13:44.669Z,21.40
2018-05-24T20:16:14.600Z,21.40
2018-05-24T20:18:42.861Z,21.40
2018-05-24T20:21:11.333Z,21.40
2018-05-24T20:23:40.361Z,21.10
2018-05-24T20:26:08.685Z,21.10
2018-05-24T20:28:38.100Z,21.00
2018-05-24T20:31:06.369Z,21.00
2018-05-24T20:33:34.786Z,20.90
2018-05-24T20:36:03.149Z,20.80
2018-05-24T20:38:32.181Z,20.70
2018-05-24T20:41:01.417Z,20.70
2018-05-24T20:43:29.701Z,20.60
2018-05-24T20:46:00.029Z,20.60
2018-05-24T20:48:28.404Z,20.60
2018-05-24T20:50:57.779Z,20.50
2018-05-24T20:53:26.266Z,20.50
2018-05-24T20:55:54.521Z,20.50
2018-05-24T20:58:24.092Z,20.50
2018-05-24T21:00:52.352Z,20.40
2018-05-24T21:03:21.133Z,20.40
2018-05-24T21:05:49.533Z,20.30
2018-05-24T21:08:18.587Z,20.30
2018-05-24T21:10:46.841Z,20.30
2018-05-24T21:13:15.489Z,20.30
2018-05-24T21:15:44.127Z,20.30
2018-05-24T21:18:12.385Z,20.30
2018-05-24T21:20:40.860Z,20.30
2018-05-24T21:23:09.900Z,20.30
2018-05-24T21:25:38.394Z,20.30
2018-05-24T21:28:06.679Z,20.20
2018-05-24T21:30:34.937Z,20.20
2018-05-24T21:33:03.208Z,20.10
2018-05-24T21:35:31.968Z,20.10
2018-05-24T21:38:00.662Z,20.10
2018-05-24T21:40:29.237Z,20.10
2018-05-24T21:42:57.673Z,20.10
2018-05-24T21:45:26.703Z,20.00
2018-05-24T21:47:55.433Z,20.00
2018-05-24T21:50:23.708Z,20.10
2018-05-24T21:52:51.970Z,20.00
2018-05-24T21:55:20.226Z,19.90
2018-05-24T21:57:48.624Z,19.90
2018-05-24T22:00:18.642Z,19.90
2018-05-24T22:02:46.881Z,19.90
2018-05-24T22:05:15.170Z,19.90
2018-05-24T22:07:43.445Z,19.90
2018-05-24T22:10:11.703Z,19.90
2018-05-24T22:12:39.979Z,19.90
2018-05-24T22:15:08.237Z,19.80
2018-05-24T22:17:36.504Z,19.80
2018-05-24T22:20:05.630Z,19.80
2018-05-24T22:22:33.877Z,19.80
2018-05-24T22:25:02.140Z,19.80
2018-05-24T22:27:30.428Z,19.70
2018-05-24T22:29:59.450Z,19.70
2018-05-24T22:32:27.699Z,19.60
2018-05-24T22:34:55.981Z,19.60
2018-05-24T22:37:24.248Z,19.60
2018-05-24T22:39:53.275Z,19.60
2018-05-24T22:42:21.897Z,19.60
2018-05-24T22:44:50.391Z,19.60
2018-05-24T22:47:18.770Z,19.50
2018-05-24T22:49:47.327Z,19.50
2018-05-24T22:52:15.577Z,19.40
2018-05-24T22:54:43.846Z,19.40
2018-05-24T22:57:12.352Z,19.30
2018-05-24T22:59:40.609Z,19.30
2018-05-24T23:02:08.869Z,19.30
2018-05-24T23:04:37.964Z,19.40
2018-05-24T23:07:06.220Z,19.30
2018-05-24T23:09:34.477Z,19.40
2018-05-24T23:12:02.764Z,19.40
2018-05-24T23:14:31.020Z,19.40
2018-05-24T23:16:59.270Z,19.40
2018-05-24T23:19:27.543Z,19.40
2018-05-24T23:21:56.611Z,19.40
2018-05-24T23:24:24.869Z,19.40
2018-05-24T23:26:53.347Z,19.40
2018-05-24T23:29:21.592Z,19.40
2018-05-24T23:31:49.844Z,19.40
2018-05-24T23:34:18.119Z,19.40
2018-05-24T23:36:47.135Z,19.40
2018-05-24T23:39:15.387Z,19.30
2018-05-24T23:41:43.945Z,19.30
2018-05-24T23:44:12.204Z,19.20
2018-05-24T23:46:40.451Z,19.10
2018-05-24T23:49:09.036Z,19.00
2018-05-24T23:51:38.316Z,18.90
2018-05-24T23:54:06.606Z,18.90
2018-05-24T23:56:35.050Z,18.90
2018-05-24T23:59:03.416Z,18.90
